Time;durP1;ratioP1;P1;durP2;ratioP2;P2;SDS_P1;SDS_P2;PMS_P1;PMS_P2;Temp;Humidity;BMP_temperature;BMP_pressure;BME280_temperature;BME280_humidity;BME280_pressure;Samples;Min_cycle;Max_cycle;Signal;HPM_P1;HPM_P2
2022/01/28 00:02:44;;;;;;;16.52;9.38;;;3.50;76.70;;;;;;5096117;28;20074;-60
2022/01/28 00:04:55;;;;;;;14.27;8.48;;;3.50;76.70;;;;;;5093581;28;20094;-59
2022/01/28 00:07:21;;;;;;;21.42;16.30;;;3.40;76.70;;;;;;5090072;28;20368;-60
2022/01/28 00:09:46;;;;;;;20.67;11.60;;;3.50;77.10;;;;;;5083710;28;20075;-60
2022/01/28 00:12:13;;;;;;;22.55;17.23;;;3.50;76.90;;;;;;5096003;28;20020;-60
2022/01/28 00:14:51;;;;;;;17.48;10.40;;;3.50;77.20;;;;;;5091922;28;20066;-60
2022/01/28 00:38:44;;;;;;;20.50;16.02;;;3.60;76.90;;;;;;5088690;28;20086;-60
2022/01/28 00:41:13;;;;;;;18.52;15.18;;;3.60;77.10;;;;;;5085022;28;20036;-59
2022/01/28 00:43:39;;;;;;;18.30;10.88;;;3.70;77.10;;;;;;5094885;28;20039;-60
2022/01/28 00:46:05;;;;;;;17.67;10.77;;;3.70;76.80;;;;;;5066864;28;20459;-60
2022/01/28 00:48:31;;;;;;;16.35;10.48;;;3.70;76.90;;;;;;5091709;28;20514;-58
2022/01/28 00:50:56;;;;;;;16.35;13.45;;;3.60;76.90;;;;;;5089486;28;20078;-60
2022/01/28 00:53:22;;;;;;;16.00;9.85;;;3.70;77.00;;;;;;5088805;28;20110;-60
2022/01/28 00:55:48;;;;;;;22.40;17.17;;;3.60;76.70;;;;;;5081407;28;20040;-60
2022/01/28 00:58:14;;;;;;;23.30;11.70;;;3.60;77.10;;;;;;5095014;28;20043;-59
2022/01/28 01:00:40;;;;;;;21.42;12.23;;;3.60;76.90;;;;;;5093145;28;20479;-60
2022/01/28 01:03:05;;;;;;;21.35;11.57;;;3.60;77.00;;;;;;5092237;28;20102;-60
2022/01/28 01:05:33;;;;;;;16.77;10.40;;;3.60;77.10;;;;;;5094302;28;20099;-60
2022/01/28 01:08:00;;;;;;;20.35;16.75;;;3.60;77.20;;;;;;5080740;28;20438;-60
2022/01/28 01:10:27;;;;;;;20.40;11.73;;;3.60;77.30;;;;;;5083510;28;20051;-60
2022/01/28 01:12:53;;;;;;;20.75;16.80;;;3.70;77.00;;;;;;5086761;28;20035;-59
2022/01/28 01:15:23;;;;;;;22.52;17.77;;;3.70;77.30;;;;;;5094817;28;20055;-60
2022/01/28 01:18:10;;;;;;;22.63;11.48;;;3.80;77.20;;;;;;5090424;28;20024;-60
2022/01/28 01:25:52;;;;;;;21.15;11.73;;;3.80;77.00;;;;;;5082592;28;20447;-60
2022/01/28 01:28:21;;;;;;;18.02;9.95;;;3.80;76.80;;;;;;5084423;28;20044;-60
2022/01/28 01:30:47;;;;;;;21.33;15.68;;;3.80;76.90;;;;;;5089044;28;20379;-60
2022/01/28 01:33:15;;;;;;;15.93;10.50;;;3.80;77.10;;;;;;5093859;28;20020;-60
2022/01/28 01:35:41;;;;;;;17.65;10.57;;;3.80;76.90;;;;;;5094200;28;20588;-60
2022/01/28 01:38:08;;;;;;;21.75;17.15;;;3.80;76.90;;;;;;5093433;28;20091;-60
2022/01/28 01:40:50;;;;;;;19.88;10.85;;;3.80;77.20;;;;;;5085631;28;20074;-60
2022/01/28 01:53:44;;;;;;;16.25;10.48;;;3.90;77.40;;;;;;5089631;28;20027;-60
2022/01/28 01:56:10;;;;;;;19.15;16.40;;;3.90;77.20;;;;;;5094437;28;20024;-60
2022/01/28 01:58:36;;;;;;;20.40;10.88;;;3.90;77.50;;;;;;5092412;28;20036;-60
2022/01/28 02:01:02;;;;;;;18.08;11.32;;;3.90;77.50;;;;;;5090518;28;20059;-60
2022/01/28 02:03:29;;;;;;;18.77;15.65;;;3.90;77.50;;;;;;5098394;28;20054;-60
2022/01/28 02:05:57;;;;;;;16.45;10.32;;;3.90;77.70;;;;;;5094287;28;20020;-60
2022/01/28 02:08:25;;;;;;;22.33;16.92;;;3.90;77.40;;;;;;5075665;28;20028;-60
2022/01/28 02:10:51;;;;;;;18.25;10.80;;;4.00;77.50;;;;;;5088552;28;20444;-58
2022/01/28 02:13:16;;;;;;;18.73;10.48;;;3.90;77.20;;;;;;5087834;28;20026;-60
2022/01/28 02:15:42;;;;;;;20.58;10.57;;;3.90;77.20;;;;;;5091251;28;20029;-60
2022/01/28 02:18:08;;;;;;;25.65;17.42;;;3.80;77.30;;;;;;5088522;28;20468;-60
2022/01/28 02:20:37;;;;;;;22.00;18.42;;;3.90;77.80;;;;;;5091206;28;20048;-60
2022/01/28 02:23:04;;;;;;;21.65;12.13;;;3.90;77.80;;;;;;5090008;28;20056;-60
2022/01/28 02:25:32;;;;;;;17.65;11.63;;;3.90;77.70;;;;;;5094044;28;20039;-60
2022/01/28 02:28:04;;;;;;;19.33;11.98;;;3.90;77.80;;;;;;5093160;28;20013;-60
2022/01/28 02:30:30;;;;;;;21.38;16.83;;;3.90;77.90;;;;;;5088277;28;20031;-60
2022/01/28 02:33:14;;;;;;;21.60;12.52;;;4.00;78.30;;;;;;5094917;28;20016;-59
2022/01/28 02:35:42;;;;;;;18.75;11.48;;;4.00;77.90;;;;;;5084695;28;20024;-60
2022/01/28 02:38:10;;;;;;;19.48;10.77;;;4.00;77.90;;;;;;5084580;28;20602;-60
2022/01/28 02:40:36;;;;;;;20.67;12.82;;;4.00;77.90;;;;;;5094063;28;20052;-60
2022/01/28 02:43:17;;;;;;;22.13;14.55;;;4.00;77.90;;;;;;5093841;28;20055;-60
2022/01/28 02:45:44;;;;;;;21.10;11.77;;;4.00;78.00;;;;;;5093352;28;20102;-60
2022/01/28 02:48:17;;;;;;;19.90;17.75;;;3.90;77.90;;;;;;5093437;28;20048;-59
2022/01/28 02:51:19;;;;;;;21.92;12.68;;;4.00;78.30;;;;;;5089317;28;20095;-60
2022/01/28 02:53:40;;;;;;;23.30;19.35;;;4.00;78.10;;;;;;5082369;28;20036;-60
2022/01/28 02:56:15;;;;;;;21.38;12.80;;;4.00;78.40;;;;;;5090900;28;20028;-60
2022/01/28 02:58:41;;;;;;;22.70;18.00;;;4.00;78.20;;;;;;5096203;28;20043;-60
2022/01/28 03:01:07;;;;;;;19.38;12.50;;;4.00;78.60;;;;;;5091390;28;20081;-59
2022/01/28 03:03:32;;;;;;;23.92;11.88;;;3.90;78.20;;;;;;5097968;28;20107;-60
2022/01/28 03:05:58;;;;;;;21.10;10.90;;;3.90;78.40;;;;;;5090020;28;20067;-60
2022/01/28 03:08:28;;;;;;;21.67;12.30;;;3.90;78.60;;;;;;5094423;28;20054;-59
2022/01/28 03:13:45;;;;;;;22.65;13.02;;;3.90;79.10;;;;;;5095130;28;20031;-60
2022/01/28 03:16:14;;;;;;;24.35;19.05;;;3.90;78.80;;;;;;5096751;28;20060;-60
2022/01/28 03:18:49;;;;;;;23.00;12.93;;;3.90;79.10;;;;;;5096709;28;20032;-60
2022/01/28 03:22:03;;;;;;;19.83;11.38;;;3.90;78.70;;;;;;5091431;28;20055;-60
2022/01/28 03:24:07;;;;;;;20.42;16.45;;;3.80;78.80;;;;;;5075420;28;20040;-60
2022/01/28 03:26:32;;;;;;;20.73;11.27;;;3.90;79.10;;;;;;5089822;28;20025;-60
2022/01/28 03:28:58;;;;;;;23.52;18.98;;;3.80;78.80;;;;;;5093505;28;20039;-59
2022/01/28 03:31:24;;;;;;;20.65;11.88;;;3.80;79.80;;;;;;5091178;28;20521;-60
2022/01/28 03:33:50;;;;;;;22.23;11.63;;;3.80;78.90;;;;;;5093578;28;20028;-60
2022/01/28 03:36:15;;;;;;;23.77;11.77;;;3.80;79.10;;;;;;5095795;28;20618;-60
2022/01/28 03:38:42;;;;;;;24.17;17.20;;;3.80;79.10;;;;;;5095362;28;20078;-60
2022/01/28 03:41:15;;;;;;;27.52;20.67;;;3.80;79.40;;;;;;5093938;28;20060;-59
2022/01/28 03:43:40;;;;;;;21.50;13.60;;;3.80;79.30;;;;;;5093197;28;20032;-60
2022/01/28 03:46:07;;;;;;;22.85;13.20;;;3.80;79.10;;;;;;5096134;28;20110;-60
2022/01/28 03:48:32;;;;;;;17.88;11.45;;;3.80;79.20;;;;;;5096095;28;20024;-60
2022/01/28 03:50:58;;;;;;;22.08;13.25;;;3.80;79.10;;;;;;5091728;28;20032;-60
2022/01/28 03:53:24;;;;;;;22.75;11.55;;;3.70;79.20;;;;;;5089762;28;20027;-59
2022/01/28 03:55:52;;;;;;;16.40;10.23;;;3.70;79.10;;;;;;5095188;28;20479;-60
2022/01/28 03:58:18;;;;;;;25.23;18.98;;;3.70;79.20;;;;;;5090782;28;20416;-60
2022/01/28 04:00:44;;;;;;;22.67;11.93;;;3.70;79.60;;;;;;5081937;28;20025;-60
2022/01/28 04:03:24;;;;;;;21.33;11.85;;;3.80;79.40;;;;;;5093331;28;20028;-60
2022/01/28 04:11:28;;;;;;;16.67;10.00;;;3.70;79.50;;;;;;5093340;28;20173;-60
2022/01/28 04:14:07;;;;;;;16.38;9.57;;;3.70;79.40;;;;;;5085063;28;20445;-59
2022/01/28 04:19:17;;;;;;;21.95;13.85;;;3.70;79.70;;;;;;5091809;28;20047;-60
2022/01/28 04:21:42;;;;;;;25.63;19.20;;;3.70;79.50;;;;;;5081514;28;20044;-60
2022/01/28 04:24:08;;;;;;;23.65;19.60;;;3.80;80.00;;;;;;5095363;28;20019;-60
2022/01/28 04:26:33;;;;;;;21.92;12.45;;;3.90;79.70;;;;;;5095456;28;20052;-60
2022/01/28 04:28:59;;;;;;;23.63;13.32;;;3.90;79.30;;;;;;5095376;28;20036;-60
2022/01/28 04:31:25;;;;;;;24.83;12.63;;;3.90;79.20;;;;;;5095230;28;20024;-59
2022/01/28 04:33:53;;;;;;;23.27;18.83;;;3.90;79.20;;;;;;5104510;28;20024;-59
2022/01/28 04:36:20;;;;;;;27.23;20.58;;;4.00;79.40;;;;;;5087985;28;20028;-60
2022/01/28 04:38:53;;;;;;;20.98;12.93;;;4.00;79.10;;;;;;5092323;28;20477;-60
2022/01/28 04:41:32;;;;;;;22.55;18.85;;;3.90;78.90;;;;;;5095302;28;20035;-59
2022/01/28 04:44:06;;;;;;;21.83;12.13;;;4.00;79.30;;;;;;5094158;28;20034;-60
2022/01/28 04:49:52;;;;;;;;;;;4.00;79.20;;;;;;5054994;28;20033;-59
2022/01/28 04:56:09;;;;;;;16.58;9.57;;;3.90;78.90;;;;;;5092544;28;20568;-60
2022/01/28 05:17:11;;;;;;;21.58;12.18;;;3.90;79.10;;;;;;5093038;28;20024;-60
2022/01/28 05:27:37;;;;;;;24.70;12.93;;;3.90;79.40;;;;;;5092246;28;20035;-59
2022/01/28 05:30:05;;;;;;;20.27;11.40;;;3.90;79.10;;;;;;5080503;28;20476;-60
2022/01/28 05:32:31;;;;;;;26.38;19.20;;;3.90;79.20;;;;;;5091312;28;20016;-60
2022/01/28 05:34:57;;;;;;;18.00;11.32;;;3.90;79.30;;;;;;5093003;28;20035;-60
2022/01/28 05:37:22;;;;;;;24.45;19.23;;;3.90;79.00;;;;;;5092345;28;20026;-59
2022/01/28 05:39:48;;;;;;;21.92;12.95;;;3.90;79.40;;;;;;5093336;28;20393;-60
2022/01/28 05:42:13;;;;;;;24.10;19.38;;;3.90;79.30;;;;;;5089399;28;20039;-60
2022/01/28 05:44:39;;;;;;;21.65;12.13;;;3.90;79.40;;;;;;5093728;28;20078;-60
2022/01/28 05:47:05;;;;;;;20.77;12.00;;;3.90;79.10;;;;;;5082572;28;20048;-60
2022/01/28 05:49:31;;;;;;;20.20;11.20;;;3.80;78.90;;;;;;5089084;28;20020;-60
2022/01/28 05:51:57;;;;;;;16.65;11.20;;;3.80;79.20;;;;;;5083728;28;20027;-59
2022/01/28 05:54:23;;;;;;;22.88;18.40;;;3.70;79.40;;;;;;5091983;28;20027;-60
2022/01/28 05:56:49;;;;;;;27.17;14.18;;;3.80;79.60;;;;;;5089322;28;20036;-59
2022/01/28 05:59:15;;;;;;;26.83;20.70;;;3.80;79.60;;;;;;5084329;28;20063;-60
2022/01/28 06:01:40;;;;;;;25.33;13.38;;;3.80;80.00;;;;;;5085194;28;20379;-59
2022/01/28 06:04:06;;;;;;;20.48;12.00;;;3.80;79.60;;;;;;5090427;28;20467;-59
2022/01/28 06:06:33;;;;;;;24.73;11.52;;;3.80;79.50;;;;;;5091326;28;20102;-59
2022/01/28 06:08:59;;;;;;;24.10;19.13;;;3.70;79.30;;;;;;5088193;28;20480;-59
2022/01/28 06:11:25;;;;;;;21.75;12.32;;;3.80;79.70;;;;;;5087297;28;20035;-59
2022/01/28 06:13:52;;;;;;;22.23;11.88;;;3.70;79.40;;;;;;5083274;28;20043;-59
2022/01/28 06:16:18;;;;;;;27.55;21.75;;;3.70;79.40;;;;;;5090833;28;20106;-59
2022/01/28 06:18:45;;;;;;;22.65;12.93;;;3.70;79.40;;;;;;5080932;28;20020;-60
2022/01/28 06:21:11;;;;;;;29.02;21.27;;;3.60;79.30;;;;;;5082029;28;20107;-59
2022/01/28 06:23:36;;;;;;;26.20;15.70;;;3.60;79.50;;;;;;5085239;28;20044;-60
2022/01/28 06:26:03;;;;;;;23.30;14.18;;;3.60;79.50;;;;;;5083975;28;20067;-58
2022/01/28 06:28:28;;;;;;;22.02;13.63;;;3.60;79.80;;;;;;5066711;28;20034;-57
2022/01/28 06:30:54;;;;;;;26.48;20.77;;;3.60;79.80;;;;;;5088046;28;20024;-58
2022/01/28 06:33:21;;;;;;;23.45;13.80;;;3.60;80.10;;;;;;5072916;28;20429;-59
2022/01/28 06:35:48;;;;;;;26.48;14.65;;;3.60;79.60;;;;;;5086162;28;20062;-59
2022/01/28 06:38:14;;;;;;;22.10;12.45;;;3.60;79.80;;;;;;5086896;28;20029;-59
2022/01/28 06:40:40;;;;;;;25.40;14.75;;;3.60;79.80;;;;;;5084517;28;20451;-59
2022/01/28 06:43:10;;;;;;;28.50;22.15;;;3.60;79.80;;;;;;5090937;28;20036;-60
2022/01/28 06:45:36;;;;;;;28.33;16.02;;;3.60;80.20;;;;;;5082070;28;20063;-60
2022/01/28 06:48:02;;;;;;;25.30;13.60;;;3.60;79.90;;;;;;5087748;28;20414;-60
2022/01/28 06:50:28;;;;;;;28.33;22.15;;;3.60;80.00;;;;;;5086184;28;20427;-59
2022/01/28 06:52:54;;;;;;;25.58;14.35;;;3.60;80.30;;;;;;5077796;28;20086;-60
2022/01/28 06:55:19;;;;;;;26.55;14.32;;;3.60;79.80;;;;;;5083479;28;20039;-60
2022/01/28 06:57:45;;;;;;;28.17;22.58;;;3.70;80.00;;;;;;5071349;28;20028;-60
2022/01/28 07:00:11;;;;;;;32.05;17.17;;;3.70;79.90;;;;;;5080255;28;20032;-60
2022/01/28 07:02:38;;;;;;;24.27;13.57;;;3.80;79.80;;;;;;5079074;28;20016;-59
2022/01/28 07:05:04;;;;;;;28.58;22.30;;;3.70;79.80;;;;;;5081442;28;20055;-58
2022/01/28 07:07:31;;;;;;;24.73;14.23;;;3.80;79.90;;;;;;5070466;28;20024;-59
2022/01/28 07:09:56;;;;;;;23.15;15.50;;;3.80;79.60;;;;;;5071311;28;20027;-59
2022/01/28 07:12:22;;;;;;;23.90;15.07;;;3.80;79.70;;;;;;5072105;28;20041;-59
2022/01/28 07:14:49;;;;;;;31.63;23.70;;;3.90;79.90;;;;;;5069992;28;20032;-59
2022/01/28 07:17:15;;;;;;;29.33;17.55;;;4.00;80.30;;;;;;5076423;28;20024;-59
2022/01/28 07:19:41;;;;;;;31.95;26.45;;;4.00;80.10;;;;;;5075864;28;20383;-59
2022/01/28 07:22:07;;;;;;;28.92;16.40;;;4.00;80.30;;;;;;5069945;28;20048;-59
2022/01/28 07:24:34;;;;;;;34.70;26.83;;;4.10;79.90;;;;;;5069338;28;20029;-59
2022/01/28 07:27:00;;;;;;;27.63;17.75;;;4.20;79.80;;;;;;5072541;28;20043;-59
2022/01/28 07:29:29;;;;;;;31.58;16.15;;;4.20;79.70;;;;;;5072463;28;20036;-60
2022/01/28 07:31:55;;;;;;;27.15;21.40;;;4.20;79.80;;;;;;5071969;28;20712;-59
2022/01/28 07:34:22;;;;;;;30.23;22.42;;;4.30;79.80;;;;;;5072995;28;20024;-58
2022/01/28 07:36:48;;;;;;;21.50;15.15;;;4.30;79.20;;;;;;5073373;28;20051;-59
2022/01/28 07:39:13;;;;;;;20.23;12.88;;;4.30;78.90;;;;;;5078529;28;20488;-59
2022/01/28 07:41:39;;;;;;;26.35;20.58;;;4.40;79.20;;;;;;5077786;28;20047;-59
2022/01/28 07:44:05;;;;;;;26.67;14.73;;;4.40;79.20;;;;;;5076416;28;20837;-59
2022/01/28 07:46:32;;;;;;;18.42;11.25;;;4.50;79.00;;;;;;5073763;28;20035;-58
2022/01/28 07:48:57;;;;;;;20.55;11.77;;;4.50;79.30;;;;;;5078259;28;20028;-60
2022/01/28 07:51:24;;;;;;;22.25;18.52;;;4.50;79.10;;;;;;5073977;28;20028;-59
2022/01/28 07:53:50;;;;;;;19.67;11.85;;;4.50;79.00;;;;;;5072017;28;20402;-58
2022/01/28 07:56:16;;;;;;;17.67;11.55;;;4.60;78.90;;;;;;5066757;28;20035;-58
2022/01/28 07:58:41;;;;;;;19.27;11.57;;;4.60;79.10;;;;;;5062945;28;20110;-58
2022/01/28 08:01:08;;;;;;;17.80;11.55;;;4.60;79.20;;;;;;5060950;28;20237;-59
2022/01/28 08:03:34;;;;;;;20.95;13.77;;;4.60;79.20;;;;;;5075322;28;20535;-60
2022/01/28 08:06:00;;;;;;;22.83;18.63;;;4.70;79.20;;;;;;5068893;28;20033;-60
2022/01/28 08:08:26;;;;;;;18.85;12.57;;;4.80;78.80;;;;;;5068949;28;20737;-60
2022/01/28 08:10:51;;;;;;;23.58;18.15;;;4.90;78.70;;;;;;5065511;28;20062;-59
2022/01/28 08:13:17;;;;;;;21.73;12.85;;;5.00;78.00;;;;;;5068866;28;20497;-58
2022/01/28 08:15:43;;;;;;;21.98;13.38;;;5.00;77.70;;;;;;5067857;28;20047;-59
2022/01/28 08:18:10;;;;;;;20.83;12.07;;;5.00;77.60;;;;;;5076548;28;20114;-61
2022/01/28 08:20:36;;;;;;;22.02;13.15;;;5.00;77.70;;;;;;5072807;28;22106;-61
2022/01/28 08:23:03;;;;;;;20.70;13.27;;;5.10;77.70;;;;;;5070241;28;20576;-60
2022/01/28 08:25:30;;;;;;;18.38;12.73;;;5.10;77.70;;;;;;5070910;28;20500;-60
2022/01/28 08:27:55;;;;;;;21.88;16.80;;;5.10;77.50;;;;;;5068437;28;20028;-60
2022/01/28 08:30:24;;;;;;;18.70;12.85;;;5.10;77.30;;;;;;5074097;28;20024;-61
2022/01/28 08:32:50;;;;;;;24.05;14.68;;;5.20;77.30;;;;;;5060591;28;20036;-60
2022/01/28 08:35:17;;;;;;;19.77;12.98;;;5.20;77.30;;;;;;5075288;28;20119;-60
2022/01/28 08:37:43;;;;;;;20.83;14.75;;;5.20;77.20;;;;;;5067568;28;20501;-59
2022/01/28 08:40:12;;;;;;;23.55;14.88;;;5.30;77.10;;;;;;5069476;28;20048;-58
2022/01/28 08:42:38;;;;;;;23.60;15.85;;;5.30;77.00;;;;;;5074022;28;20101;-58
2022/01/28 08:45:04;;;;;;;26.92;17.15;;;5.40;77.00;;;;;;5065322;28;20028;-59
2022/01/28 08:47:30;;;;;;;25.73;19.50;;;5.40;76.90;;;;;;5067451;28;20733;-59
2022/01/28 08:49:56;;;;;;;25.27;16.40;;;5.60;76.80;;;;;;5058352;28;20032;-60
2022/01/28 08:52:21;;;;;;;20.98;14.10;;;5.70;76.50;;;;;;5052280;28;20032;-61
2022/01/28 08:54:47;;;;;;;25.02;16.52;;;5.80;76.60;;;;;;5058869;28;20123;-59
2022/01/28 08:57:13;;;;;;;22.88;16.70;;;5.90;76.50;;;;;;5064186;28;20910;-60
2022/01/28 08:59:40;;;;;;;25.10;19.30;;;5.90;76.00;;;;;;5062613;28;20040;-60
2022/01/28 09:02:06;;;;;;;26.83;16.05;;;6.10;76.20;;;;;;5063669;28;20024;-60
2022/01/28 09:04:33;;;;;;;27.98;18.30;;;6.10;75.10;;;;;;5061266;28;20055;-61
2022/01/28 09:06:58;;;;;;;29.92;20.50;;;6.10;75.00;;;;;;5065512;28;20279;-61
2022/01/28 09:09:24;;;;;;;23.35;14.20;;;6.10;74.90;;;;;;5068540;28;20028;-61
2022/01/28 09:12:05;;;;;;;26.35;16.58;;;6.00;74.90;;;;;;5067999;28;20025;-60
2022/01/28 09:14:31;;;;;;;25.00;15.68;;;6.00;75.10;;;;;;5063726;28;20548;-62
2022/01/28 09:16:57;;;;;;;22.55;15.68;;;5.90;75.10;;;;;;5064562;28;20392;-59
2022/01/28 09:19:23;;;;;;;23.65;18.58;;;5.90;75.20;;;;;;5066432;28;20032;-59
2022/01/28 09:21:50;;;;;;;25.02;19.17;;;5.90;75.30;;;;;;5067142;28;20091;-60
2022/01/28 09:24:16;;;;;;;21.75;13.80;;;5.80;75.20;;;;;;5043941;28;20093;-60
2022/01/28 09:26:42;;;;;;;21.63;13.98;;;5.80;75.40;;;;;;5061914;28;20041;-60
2022/01/28 09:29:08;;;;;;;22.02;14.70;;;5.70;75.60;;;;;;5062968;28;20024;-61
2022/01/28 09:31:34;;;;;;;20.83;15.23;;;5.70;76.20;;;;;;5069123;28;20075;-61
2022/01/28 09:33:59;;;;;;;26.20;19.27;;;5.70;76.30;;;;;;5064405;28;20055;-58
2022/01/28 09:36:25;;;;;;;25.35;19.80;;;5.70;76.40;;;;;;5048819;28;20063;-59
2022/01/28 09:38:51;;;;;;;25.65;15.25;;;5.70;76.50;;;;;;5066752;28;20114;-59
2022/01/28 09:41:17;;;;;;;25.52;17.65;;;5.80;76.50;;;;;;5042641;28;20100;-60
2022/01/28 09:43:44;;;;;;;24.08;15.55;;;5.80;76.50;;;;;;5059377;28;20029;-60
2022/01/28 09:46:11;;;;;;;25.50;19.10;;;5.80;76.40;;;;;;5066224;28;20664;-60
2022/01/28 09:48:39;;;;;;;24.65;15.38;;;5.90;76.50;;;;;;5067590;28;20059;-60
2022/01/28 09:51:04;;;;;;;21.63;14.40;;;5.90;76.00;;;;;;5068349;28;20563;-61
2022/01/28 09:53:31;;;;;;;23.30;15.38;;;5.90;75.90;;;;;;5071500;28;20118;-60
2022/01/28 09:55:57;;;;;;;22.45;15.50;;;6.00;75.80;;;;;;5063403;28;20559;-60
2022/01/28 09:58:23;;;;;;;24.83;16.17;;;6.00;75.80;;;;;;5051546;28;20497;-60
2022/01/28 10:00:50;;;;;;;20.50;13.45;;;6.00;75.70;;;;;;5061881;28;20393;-60
2022/01/28 10:03:17;;;;;;;21.25;17.98;;;6.00;75.70;;;;;;5056823;28;20042;-60
2022/01/28 10:05:44;;;;;;;21.50;14.60;;;6.10;75.50;;;;;;5068746;28;20039;-60
2022/01/28 10:08:13;;;;;;;25.67;19.60;;;6.10;75.50;;;;;;5050204;28;20028;-60
2022/01/28 10:10:45;;;;;;;23.42;14.57;;;6.20;75.30;;;;;;5061746;28;20036;-61
2022/01/28 10:13:55;;;;;;;22.08;14.30;;;6.20;75.30;;;;;;5057983;28;20031;-60
2022/01/28 10:16:29;;;;;;;21.85;13.15;;;6.20;75.10;;;;;;5060052;28;20116;-60
2022/01/28 10:18:58;;;;;;;26.35;16.95;;;6.20;75.10;;;;;;5061630;28;20082;-61
2022/01/28 10:21:27;;;;;;;29.02;20.05;;;6.30;74.90;;;;;;5060848;28;20048;-61
2022/01/28 10:24:22;;;;;;;27.63;18.42;;;6.40;75.10;;;;;;5062058;28;20051;-60
2022/01/28 10:26:50;;;;;;;23.58;17.40;;;6.50;74.80;;;;;;5064416;28;20527;-61
2022/01/28 10:29:30;;;;;;;23.85;19.00;;;6.50;74.60;;;;;;5060704;28;20071;-60
2022/01/28 10:32:03;;;;;;;24.75;16.13;;;6.70;74.20;;;;;;5066493;28;20039;-61
2022/01/28 10:34:55;;;;;;;25.70;18.23;;;6.70;74.00;;;;;;5070277;28;20036;-60
2022/01/28 10:37:25;;;;;;;20.60;15.85;;;6.80;73.60;;;;;;5059336;28;20044;-61
2022/01/28 10:39:52;;;;;;;20.27;15.73;;;6.80;73.60;;;;;;5055289;28;20077;-59
2022/01/28 10:42:31;;;;;;;22.10;16.85;;;6.80;73.30;;;;;;5061940;28;20379;-60
2022/01/28 10:45:13;;;;;;;24.20;19.00;;;6.90;73.00;;;;;;5066339;28;20039;-60
2022/01/28 10:47:49;;;;;;;22.58;15.98;;;6.90;72.90;;;;;;5073451;28;20038;-59
2022/01/28 10:50:20;;;;;;;20.13;15.95;;;6.90;73.00;;;;;;5063424;28;20024;-59
2022/01/28 10:52:48;;;;;;;20.67;15.13;;;6.90;72.80;;;;;;5057905;28;20464;-60
2022/01/28 10:55:18;;;;;;;24.35;16.55;;;7.00;72.40;;;;;;5062523;28;20036;-60
2022/01/28 10:58:15;;;;;;;21.70;16.65;;;7.00;72.30;;;;;;5061395;28;20035;-59
2022/01/28 11:00:53;;;;;;;20.92;13.90;;;7.00;72.00;;;;;;5062308;28;20066;-60
2022/01/28 11:03:26;;;;;;;22.73;16.80;;;7.00;72.00;;;;;;5055752;28;20017;-60
2022/01/28 11:05:54;;;;;;;22.13;17.05;;;7.00;72.00;;;;;;5062832;28;20032;-60
2022/01/28 11:08:20;;;;;;;21.13;16.92;;;7.00;71.80;;;;;;5063030;28;20068;-60
2022/01/28 11:10:46;;;;;;;22.98;17.00;;;7.00;71.70;;;;;;5059643;28;20511;-59
2022/01/28 11:13:12;;;;;;;19.77;16.10;;;7.00;71.80;;;;;;5065680;28;20074;-60
2022/01/28 11:15:38;;;;;;;24.13;17.45;;;7.00;71.60;;;;;;5061690;28;20029;-59
2022/01/28 11:18:07;;;;;;;23.88;17.50;;;7.00;71.80;;;;;;5069809;28;20039;-59
2022/01/28 11:21:03;;;;;;;25.27;18.85;;;7.00;72.30;;;;;;5068890;28;20043;-59
2022/01/28 11:23:43;;;;;;;23.13;17.85;;;7.10;71.10;;;;;;5052295;28;21343;-59
2022/01/28 11:26:22;;;;;;;25.05;17.33;;;7.10;70.90;;;;;;5071244;28;20585;-59
2022/01/28 11:28:56;;;;;;;26.92;20.30;;;7.10;70.70;;;;;;5047569;28;20020;-60
2022/01/28 11:31:41;;;;;;;25.08;17.48;;;7.10;70.70;;;;;;5054768;28;20023;-60
2022/01/28 11:34:18;;;;;;;26.35;19.80;;;7.10;70.70;;;;;;5060368;28;20193;-59
2022/01/28 11:36:44;;;;;;;26.60;16.90;;;7.10;70.40;;;;;;5064044;28;20589;-60
2022/01/28 11:39:37;;;;;;;29.17;20.08;;;7.20;70.40;;;;;;5062649;28;20055;-60
2022/01/28 11:42:18;;;;;;;21.95;14.65;;;7.20;70.30;;;;;;5064955;28;20071;-60
2022/01/28 11:44:55;;;;;;;20.77;18.05;;;7.20;70.20;;;;;;5070779;28;20032;-60
2022/01/28 11:47:33;;;;;;;23.48;20.02;;;7.20;70.20;;;;;;5064993;28;20032;-59
2022/01/28 11:50:16;;;;;;;22.35;16.48;;;7.20;70.20;;;;;;5067846;28;20028;-60
2022/01/28 11:52:55;;;;;;;25.90;18.60;;;7.20;70.20;;;;;;5067571;28;20032;-60
2022/01/28 11:55:31;;;;;;;25.77;19.35;;;7.20;70.20;;;;;;5066369;28;20032;-59
2022/01/28 11:58:06;;;;;;;24.17;18.35;;;7.30;70.30;;;;;;5079281;28;20016;-59
2022/01/28 12:00:43;;;;;;;24.35;18.60;;;7.30;70.10;;;;;;5063409;28;20028;-58
2022/01/28 12:03:19;;;;;;;22.13;16.95;;;7.30;69.80;;;;;;5069780;28;20032;-59
2022/01/28 12:05:48;;;;;;;22.08;15.50;;;7.30;69.70;;;;;;5068120;28;20563;-57
2022/01/28 12:08:16;;;;;;;21.65;16.23;;;7.20;69.80;;;;;;5069833;28;20101;-59
2022/01/28 12:10:45;;;;;;;22.23;16.33;;;7.20;69.80;;;;;;5061361;28;20128;-59
2022/01/28 12:13:14;;;;;;;21.48;17.63;;;7.20;69.80;;;;;;5068232;28;20100;-58
2022/01/28 12:15:59;;;;;;;20.13;15.07;;;7.20;69.50;;;;;;5066236;28;20586;-59
2022/01/28 12:18:45;;;;;;;21.92;16.00;;;7.20;69.50;;;;;;5056509;28;20188;-59
2022/01/28 12:21:38;;;;;;;20.60;14.98;;;7.10;69.70;;;;;;5061906;28;20053;-59
2022/01/28 12:24:19;;;;;;;18.73;15.85;;;7.00;69.80;;;;;;5051509;28;20097;-59
2022/01/28 12:27:06;;;;;;;20.30;14.73;;;7.10;69.50;;;;;;5062221;28;20059;-58
2022/01/28 12:29:34;;;;;;;17.85;15.05;;;7.10;69.40;;;;;;5063636;28;20028;-59
2022/01/28 12:32:01;;;;;;;22.75;15.43;;;7.00;69.00;;;;;;5067991;28;20036;-60
2022/01/28 12:34:27;;;;;;;23.88;18.10;;;7.00;69.00;;;;;;5060824;28;20032;-61
2022/01/28 12:36:56;;;;;;;20.70;15.27;;;7.00;69.20;;;;;;5058702;28;20032;-56
2022/01/28 12:39:43;;;;;;;21.98;16.52;;;7.00;69.20;;;;;;5054915;28;20036;-60
2022/01/28 12:42:29;;;;;;;21.40;17.10;;;7.00;69.00;;;;;;5063166;28;21074;-58
2022/01/28 12:44:57;;;;;;;18.85;11.65;;;6.90;68.80;;;;;;5058453;28;20024;-59
2022/01/28 12:47:24;;;;;;;20.67;15.52;;;6.90;68.80;;;;;;5064389;28;20047;-60
2022/01/28 12:50:03;;;;;;;22.52;17.52;;;6.90;68.80;;;;;;5066255;28;20411;-59
2022/01/28 12:52:30;;;;;;;22.33;14.82;;;6.90;69.00;;;;;;5066660;28;20059;-60
2022/01/28 12:54:56;;;;;;;24.70;19.00;;;6.80;69.10;;;;;;5062869;28;20105;-60
2022/01/28 12:57:22;;;;;;;24.35;18.67;;;6.80;69.20;;;;;;5065821;28;20028;-59
2022/01/28 12:59:49;;;;;;;25.23;18.13;;;6.90;69.40;;;;;;5063429;28;20461;-59
2022/01/28 13:02:17;;;;;;;24.85;15.32;;;6.90;69.40;;;;;;5059914;28;20127;-59
2022/01/28 13:04:56;;;;;;;25.15;16.75;;;6.90;69.00;;;;;;5056413;28;20125;-59
2022/01/28 13:10:07;;;;;;;27.13;13.80;;;6.90;68.80;;;;;;5059692;28;20068;-59
2022/01/28 13:12:32;;;;;;;24.42;16.40;;;6.80;68.90;;;;;;5058043;28;20039;-60
2022/01/28 13:15:07;;;;;;;25.70;16.92;;;6.70;68.80;;;;;;5061267;28;20735;-59
2022/01/28 13:17:32;;;;;;;27.25;17.55;;;6.70;68.90;;;;;;5059441;28;20059;-59
2022/01/28 13:20:00;;;;;;;25.35;15.48;;;6.60;69.10;;;;;;5062882;28;20118;-59
2022/01/28 13:22:28;;;;;;;22.20;14.80;;;6.60;69.30;;;;;;5061196;28;20159;-59
2022/01/28 13:24:54;;;;;;;21.70;16.60;;;6.50;69.70;;;;;;5071155;28;20035;-58
2022/01/28 13:27:21;;;;;;;23.35;15.40;;;6.50;69.90;;;;;;5067316;28;20574;-59
2022/01/28 13:29:52;;;;;;;21.27;16.98;;;6.50;70.20;;;;;;5056100;28;20028;-60
2022/01/28 13:32:24;;;;;;;19.33;15.88;;;6.60;70.30;;;;;;5060025;28;20182;-60
2022/01/28 13:35:00;;;;;;;18.30;12.65;;;6.60;70.10;;;;;;5063269;28;20135;-59
2022/01/28 13:37:47;;;;;;;20.77;15.60;;;6.60;70.10;;;;;;5063236;28;20772;-60
2022/01/28 13:40:19;;;;;;;23.08;13.93;;;6.60;69.90;;;;;;5060852;28;20031;-60
2022/01/28 13:43:06;;;;;;;20.10;13.68;;;6.60;69.90;;;;;;5064190;28;20389;-59
2022/01/28 13:45:36;;;;;;;26.40;19.77;;;6.50;70.00;;;;;;5057243;28;20037;-60
2022/01/28 13:48:06;;;;;;;19.65;12.93;;;6.50;70.20;;;;;;5063714;28;20468;-59
2022/01/28 13:50:37;;;;;;;22.45;16.58;;;6.40;70.90;;;;;;5066655;28;20194;-58
2022/01/28 13:53:34;;;;;;;20.17;15.35;;;6.40;70.30;;;;;;5062345;28;20173;-60
2022/01/28 13:55:59;;;;;;;17.40;10.93;;;6.40;70.30;;;;;;5055047;28;20033;-59
2022/01/28 13:58:25;;;;;;;22.77;14.25;;;6.40;70.30;;;;;;5061901;28;20625;-60
2022/01/28 14:00:52;;;;;;;19.25;12.95;;;6.40;70.30;;;;;;5062630;28;20039;-59
2022/01/28 14:03:26;;;;;;;22.33;16.33;;;6.40;70.50;;;;;;5045386;28;22280;-60
2022/01/28 14:05:58;;;;;;;21.17;12.88;;;6.40;70.30;;;;;;5052848;28;20039;-60
2022/01/28 14:08:42;;;;;;;;;;;6.40;70.40;;;;;;5064797;28;22039;-60
2022/01/28 14:11:32;;;;;;;18.17;11.20;;;6.30;70.50;;;;;;5060285;28;19935;-60
2022/01/28 14:14:23;;;;;;;17.85;11.48;;;6.30;70.30;;;;;;5040821;28;20058;-59
2022/01/28 14:16:56;;;;;;;26.93;13.60;;;6.30;70.30;;;;;;5062644;28;20153;-60